Time;durP1;ratioP1;P1;durP2;ratioP2;P2;SDS_P1;SDS_P2;PMS_P1;PMS_P2;Temp;Humidity;BMP_temperature;BMP_pressure;BME280_temperature;BME280_humidity;BME280_pressure;Samples;Min_cycle;Max_cycle;Signal;HPM_P1;HPM_P2
2022/01/06 00:01:04;;;;;;;11.48;2.90;;;3.50;99.90;;;;;;5066494;28;20234;-79
2022/01/06 00:03:31;;;;;;;6.00;2.40;;;3.40;99.90;;;;;;5084448;28;20048;-81
2022/01/06 00:05:58;;;;;;;8.82;2.83;;;3.40;99.90;;;;;;5067211;28;20020;-80
2022/01/06 00:08:24;;;;;;;9.32;2.33;;;3.40;99.90;;;;;;5066870;28;20124;-81
2022/01/06 00:10:51;;;;;;;8.60;2.30;;;3.40;99.90;;;;;;5067196;28;20032;-79
2022/01/06 00:13:24;;;;;;;8.48;2.38;;;3.40;99.90;;;;;;5084878;28;20040;-79
2022/01/06 00:18:29;;;;;;;6.75;2.40;;;3.50;99.90;;;;;;5084354;28;20016;-80
2022/01/06 00:23:39;;;;;;;8.57;2.38;;;3.60;99.90;;;;;;5083632;28;20032;-79
2022/01/06 00:26:07;;;;;;;7.10;2.88;;;3.60;99.90;;;;;;5066518;28;20100;-79
2022/01/06 00:28:33;;;;;;;9.43;2.47;;;3.50;99.90;;;;;;5084042;28;20032;-81
2022/01/06 00:30:59;;;;;;;9.80;2.83;;;3.50;99.90;;;;;;5086125;28;20060;-80
2022/01/06 00:33:29;;;;;;;8.00;2.70;;;3.40;99.90;;;;;;5102972;28;20328;-81
2022/01/06 00:35:55;;;;;;;8.90;2.42;;;3.50;99.90;;;;;;5086151;28;20016;-79
2022/01/06 00:38:22;;;;;;;8.80;2.42;;;3.50;99.90;;;;;;5104064;28;20095;-80
2022/01/06 00:40:48;;;;;;;8.18;3.00;;;3.50;99.90;;;;;;5086203;28;20167;-79
2022/01/06 00:43:14;;;;;;;11.05;2.60;;;3.50;99.90;;;;;;5069596;28;20039;-80
2022/01/06 00:45:39;;;;;;;8.70;3.10;;;3.50;99.90;;;;;;5084884;28;20063;-80
2022/01/06 00:48:10;;;;;;;10.55;2.65;;;3.50;99.90;;;;;;5086167;28;20077;-79
2022/01/06 00:50:38;;;;;;;9.07;2.70;;;3.50;99.90;;;;;;5085433;28;20117;-79
2022/01/06 00:53:04;;;;;;;9.50;3.25;;;3.50;99.90;;;;;;5103186;28;20026;-79
2022/01/06 00:55:36;;;;;;;12.23;3.33;;;3.50;99.90;;;;;;5103026;28;20203;-79
2022/01/06 00:58:03;;;;;;;7.72;2.70;;;3.50;99.90;;;;;;5103811;28;20035;-80
2022/01/06 01:00:38;;;;;;;9.90;2.80;;;3.40;99.90;;;;;;5102613;28;20200;-79
2022/01/06 01:03:14;;;;;;;9.52;3.00;;;3.40;99.90;;;;;;5102178;28;20020;-79
2022/01/06 01:05:41;;;;;;;7.32;2.75;;;3.40;99.90;;;;;;5083720;28;20028;-80
2022/01/06 01:08:08;;;;;;;8.75;2.80;;;3.40;99.90;;;;;;5083697;28;20035;-79
2022/01/06 01:10:35;;;;;;;6.32;2.78;;;3.40;99.90;;;;;;5101099;28;20092;-79
2022/01/06 01:13:01;;;;;;;10.25;2.97;;;3.40;99.90;;;;;;5101923;28;20347;-79
2022/01/06 01:15:28;;;;;;;9.75;3.63;;;3.40;99.90;;;;;;5083224;28;20070;-79
2022/01/06 01:17:54;;;;;;;9.70;3.33;;;3.40;99.90;;;;;;5101689;28;20326;-79
2022/01/06 01:20:21;;;;;;;9.55;3.22;;;3.40;99.90;;;;;;5101584;28;20083;-80
2022/01/06 01:22:47;;;;;;;11.05;3.05;;;3.50;99.90;;;;;;5067084;28;20458;-79
2022/01/06 01:25:14;;;;;;;9.02;2.60;;;3.50;99.90;;;;;;5101758;28;20350;-79
2022/01/06 01:27:43;;;;;;;10.27;2.90;;;3.50;99.90;;;;;;5082184;28;20032;-80
2022/01/06 01:30:14;;;;;;;8.30;2.80;;;3.50;99.90;;;;;;5082714;28;20032;-80
2022/01/06 01:32:49;;;;;;;8.77;3.10;;;3.50;99.90;;;;;;5082172;28;20036;-79
2022/01/06 01:35:16;;;;;;;7.50;2.72;;;3.60;99.90;;;;;;5082713;28;20052;-79
2022/01/06 01:37:42;;;;;;;11.15;3.00;;;3.60;99.90;;;;;;5064580;28;20311;-80
2022/01/06 01:40:10;;;;;;;5.78;2.30;;;3.60;99.90;;;;;;5064416;28;20025;-80
2022/01/06 01:42:36;;;;;;;8.23;2.67;;;3.60;99.90;;;;;;5083218;28;20032;-81
2022/01/06 01:45:08;;;;;;;7.53;2.30;;;3.70;99.90;;;;;;5082507;28;20035;-80
2022/01/06 01:47:44;;;;;;;10.73;3.08;;;3.60;99.90;;;;;;5084463;28;20031;-81
2022/01/06 01:50:16;;;;;;;6.93;2.97;;;3.60;99.90;;;;;;5102504;28;20091;-80
2022/01/06 01:52:48;;;;;;;9.13;2.70;;;3.50;99.90;;;;;;5084479;28;20028;-79
2022/01/06 01:55:17;;;;;;;7.47;2.72;;;3.60;99.90;;;;;;5084817;28;20059;-81
2022/01/06 01:57:42;;;;;;;7.40;2.53;;;3.50;99.90;;;;;;5084521;28;20023;-80
2022/01/06 02:00:12;;;;;;;7.50;2.53;;;3.50;99.90;;;;;;5084480;28;20218;-81
2022/01/06 02:02:41;;;;;;;6.88;2.58;;;3.50;99.90;;;;;;5068014;28;20265;-81
2022/01/06 02:05:08;;;;;;;7.68;2.78;;;3.50;99.90;;;;;;5096946;28;20035;-81
2022/01/06 02:07:34;;;;;;;8.35;3.08;;;3.50;99.90;;;;;;5102105;28;20024;-80
2022/01/06 02:10:02;;;;;;;7.55;3.00;;;3.50;99.90;;;;;;5082182;28;20074;-81
2022/01/06 02:12:32;;;;;;;8.98;2.83;;;3.40;99.90;;;;;;5082340;28;20060;-81
2022/01/06 02:14:58;;;;;;;10.50;2.47;;;3.40;99.90;;;;;;5064157;28;20048;-81
2022/01/06 02:17:24;;;;;;;10.10;2.60;;;3.50;99.90;;;;;;5064485;28;20074;-80
2022/01/06 02:19:57;;;;;;;8.02;3.25;;;3.50;99.90;;;;;;5064050;28;20029;-82
2022/01/06 02:22:23;;;;;;;7.90;2.60;;;3.50;99.90;;;;;;5064631;28;20103;-81
2022/01/06 02:24:50;;;;;;;5.88;2.63;;;3.40;99.90;;;;;;5058659;28;20211;-81
2022/01/06 02:27:19;;;;;;;10.65;3.08;;;3.40;99.90;;;;;;5064636;28;20279;-81
2022/01/06 02:29:49;;;;;;;6.60;3.10;;;3.40;99.90;;;;;;5081762;28;20048;-80
2022/01/06 02:32:16;;;;;;;9.52;3.08;;;3.50;99.90;;;;;;5063977;28;20220;-80
2022/01/06 02:34:46;;;;;;;7.90;3.08;;;3.50;99.90;;;;;;5081389;28;20039;-79
2022/01/06 02:37:14;;;;;;;7.20;2.50;;;3.50;99.90;;;;;;5064219;28;20312;-79
2022/01/06 02:39:41;;;;;;;6.32;2.40;;;3.40;99.90;;;;;;5081299;28;20311;-80
2022/01/06 02:42:07;;;;;;;11.98;2.85;;;3.40;99.90;;;;;;5064106;28;20060;-78
2022/01/06 02:44:37;;;;;;;7.35;2.53;;;3.40;99.90;;;;;;5081071;28;20288;-80
2022/01/06 02:47:05;;;;;;;8.93;2.80;;;3.40;99.90;;;;;;5077568;28;20114;-81
2022/01/06 02:49:31;;;;;;;10.80;2.50;;;3.40;99.90;;;;;;5080419;28;20029;-80
2022/01/06 02:51:57;;;;;;;6.95;2.47;;;3.40;99.90;;;;;;5063732;28;20051;-83
2022/01/06 02:54:23;;;;;;;8.60;2.80;;;3.40;99.90;;;;;;5064236;28;20287;-78
2022/01/06 02:56:48;;;;;;;8.88;2.78;;;3.30;99.90;;;;;;5063659;28;20025;-80
2022/01/06 02:59:15;;;;;;;8.35;2.85;;;3.30;99.90;;;;;;5080728;28;20046;-79
2022/01/06 03:01:43;;;;;;;11.82;3.28;;;3.30;99.90;;;;;;5081505;28;20039;-81
2022/01/06 03:04:10;;;;;;;10.00;2.78;;;3.30;99.90;;;;;;5081994;28;20032;-80
2022/01/06 03:06:36;;;;;;;7.35;2.78;;;3.40;99.90;;;;;;5075438;28;20032;-79
2022/01/06 03:09:03;;;;;;;7.13;2.85;;;3.40;99.90;;;;;;5093555;28;20052;-80
2022/01/06 03:11:30;;;;;;;7.43;3.08;;;3.30;99.90;;;;;;5083760;28;20219;-79
2022/01/06 03:13:56;;;;;;;7.25;2.75;;;3.40;99.90;;;;;;5100239;28;20024;-80
2022/01/06 03:16:23;;;;;;;6.18;2.40;;;3.40;99.90;;;;;;5084394;28;20303;-81
2022/01/06 03:18:49;;;;;;;6.72;2.40;;;3.40;99.90;;;;;;5105249;28;20072;-81
2022/01/06 03:21:14;;;;;;;7.55;2.60;;;3.40;99.90;;;;;;5087670;28;20027;-81
2022/01/06 03:23:40;;;;;;;7.30;2.65;;;3.50;99.90;;;;;;5104813;28;20032;-80
2022/01/06 03:26:06;;;;;;;7.70;2.38;;;3.50;99.90;;;;;;5086270;28;20058;-79
2022/01/06 03:28:32;;;;;;;8.55;3.20;;;3.50;99.90;;;;;;5067048;28;20024;-80
2022/01/06 03:30:59;;;;;;;5.72;2.05;;;3.60;99.90;;;;;;5066985;28;20065;-80
2022/01/06 03:33:25;;;;;;;8.43;2.50;;;3.60;99.90;;;;;;5084936;28;20032;-80
2022/01/06 03:35:50;;;;;;;7.70;2.28;;;3.70;99.90;;;;;;5066977;28;20240;-80
2022/01/06 03:38:16;;;;;;;8.38;2.50;;;3.70;99.90;;;;;;5084844;28;20075;-80
2022/01/06 03:40:42;;;;;;;6.22;2.42;;;3.70;99.90;;;;;;5083101;28;20056;-81
2022/01/06 03:43:08;;;;;;;7.28;2.38;;;3.70;99.90;;;;;;5066772;28;20025;-80
2022/01/06 03:45:35;;;;;;;6.75;2.60;;;3.70;99.90;;;;;;5083394;28;20074;-80
2022/01/06 03:48:03;;;;;;;7.55;2.30;;;3.70;99.90;;;;;;5071873;28;20361;-81
2022/01/06 03:50:30;;;;;;;7.88;2.50;;;3.80;99.90;;;;;;5105145;28;20016;-82
2022/01/06 03:52:56;;;;;;;8.05;2.70;;;3.70;99.90;;;;;;5103987;28;20028;-81
2022/01/06 03:55:23;;;;;;;9.50;2.70;;;3.70;99.90;;;;;;5104905;28;20030;-81
2022/01/06 03:57:50;;;;;;;7.40;3.00;;;3.60;99.90;;;;;;5104218;28;20060;-81
2022/01/06 04:00:21;;;;;;;8.88;2.10;;;3.60;99.90;;;;;;5086689;28;20141;-82
2022/01/06 04:02:53;;;;;;;8.02;2.22;;;3.60;99.90;;;;;;5104505;28;20016;-82
2022/01/06 04:05:19;;;;;;;5.43;2.70;;;3.50;99.90;;;;;;5069965;28;20108;-81
2022/01/06 04:07:44;;;;;;;7.57;2.10;;;3.40;99.90;;;;;;5102200;28;20024;-80
2022/01/06 04:10:35;;;;;;;9.27;2.35;;;3.30;99.90;;;;;;5087581;28;20069;-81
2022/01/06 04:13:02;;;;;;;5.93;2.72;;;3.30;99.90;;;;;;5084487;28;20060;-82
2022/01/06 04:15:31;;;;;;;6.72;3.10;;;3.30;99.90;;;;;;5066359;28;20028;-80
2022/01/06 04:17:57;;;;;;;9.35;2.70;;;3.30;99.90;;;;;;5049421;28;20086;-80
2022/01/06 04:20:23;;;;;;;5.40;1.98;;;3.30;99.90;;;;;;5083938;28;20296;-81
2022/01/06 04:22:50;;;;;;;5.85;2.42;;;3.50;99.90;;;;;;5065828;28;20104;-81
2022/01/06 04:25:15;;;;;;;7.28;2.30;;;3.50;99.90;;;;;;5066168;28;20028;-81
2022/01/06 04:27:41;;;;;;;9.95;2.63;;;3.50;99.90;;;;;;5081897;28;20025;-81
2022/01/06 04:30:08;;;;;;;7.50;2.70;;;3.50;99.90;;;;;;5052296;28;20021;-80
2022/01/06 04:32:34;;;;;;;9.27;2.60;;;3.50;99.90;;;;;;5083684;28;20040;-80
2022/01/06 04:35:01;;;;;;;6.55;2.40;;;3.50;99.90;;;;;;5083481;28;20039;-80
2022/01/06 04:37:28;;;;;;;5.97;2.53;;;3.60;99.90;;;;;;5083589;28;20070;-80
2022/01/06 04:39:54;;;;;;;8.55;2.65;;;3.50;99.90;;;;;;5083560;28;20028;-80
2022/01/06 04:42:19;;;;;;;6.50;2.47;;;3.60;99.90;;;;;;5083813;28;20027;-82
2022/01/06 04:44:45;;;;;;;6.80;3.15;;;3.60;99.90;;;;;;5083479;28;20303;-81
2022/01/06 04:47:11;;;;;;;6.07;2.70;;;3.60;99.90;;;;;;5084104;28;20205;-80
2022/01/06 04:49:37;;;;;;;7.80;3.15;;;3.60;99.90;;;;;;5049352;28;20111;-80
2022/01/06 04:52:03;;;;;;;8.65;2.83;;;3.60;99.90;;;;;;5104257;28;20012;-79
2022/01/06 04:54:29;;;;;;;7.63;2.70;;;3.60;99.90;;;;;;5103756;28;20056;-79
2022/01/06 04:56:55;;;;;;;8.77;2.63;;;3.70;99.90;;;;;;5085310;28;20381;-79
2022/01/06 04:59:21;;;;;;;7.53;2.40;;;3.70;99.90;;;;;;5103908;28;20086;-79
2022/01/06 05:01:47;;;;;;;6.53;2.70;;;3.70;99.90;;;;;;5103341;28;20070;-79
2022/01/06 05:04:13;;;;;;;8.68;2.47;;;3.60;99.90;;;;;;5086020;28;20027;-80
2022/01/06 05:06:38;;;;;;;13.15;3.72;;;3.60;99.90;;;;;;5103029;28;20020;-81
2022/01/06 05:09:04;;;;;;;8.27;2.80;;;3.70;99.90;;;;;;5085540;28;20145;-80
2022/01/06 05:11:30;;;;;;;7.30;2.85;;;3.60;99.90;;;;;;5080912;28;20027;-80
2022/01/06 05:13:56;;;;;;;7.38;2.53;;;3.50;99.90;;;;;;5068538;28;20051;-80
2022/01/06 05:16:22;;;;;;;7.38;2.70;;;3.50;99.90;;;;;;5085596;28;20306;-80
2022/01/06 05:18:47;;;;;;;6.75;2.63;;;3.50;99.90;;;;;;5084963;28;20034;-79
2022/01/06 05:21:13;;;;;;;7.72;2.83;;;3.50;99.90;;;;;;5103517;28;20063;-79
2022/01/06 05:23:40;;;;;;;7.50;2.65;;;3.40;99.90;;;;;;5102995;28;20307;-81
2022/01/06 05:26:07;;;;;;;9.82;2.75;;;3.40;99.90;;;;;;5085435;28;20020;-80
2022/01/06 05:28:33;;;;;;;6.80;2.53;;;3.30;99.90;;;;;;5085364;28;20315;-80
2022/01/06 05:30:59;;;;;;;11.18;3.10;;;3.40;99.90;;;;;;5079627;28;20032;-80
2022/01/06 05:33:25;;;;;;;6.97;2.60;;;3.30;99.90;;;;;;5102054;28;20028;-80
2022/01/06 05:35:50;;;;;;;7.28;2.72;;;3.30;99.90;;;;;;5084623;28;20095;-80
2022/01/06 05:38:16;;;;;;;6.15;2.35;;;3.30;99.90;;;;;;5103147;28;20024;-80
2022/01/06 05:40:42;;;;;;;11.60;2.88;;;3.10;99.90;;;;;;5084311;28;20031;-80
2022/01/06 05:43:08;;;;;;;9.77;2.53;;;3.20;99.90;;;;;;5103310;28;20032;-81
2022/01/06 05:45:34;;;;;;;7.45;2.30;;;3.30;99.90;;;;;;5103139;28;20219;-80
2022/01/06 05:48:00;;;;;;;8.10;2.88;;;3.30;99.90;;;;;;5102603;28;20024;-79
2022/01/06 05:50:27;;;;;;;6.10;2.10;;;3.40;99.90;;;;;;5102982;28;21997;-80
2022/01/06 05:52:54;;;;;;;8.25;2.65;;;3.40;99.90;;;;;;5069707;28;20214;-79
2022/01/06 05:55:23;;;;;;;7.90;3.03;;;3.50;99.90;;;;;;5081471;28;20226;-79
2022/01/06 05:57:52;;;;;;;8.77;2.88;;;3.50;99.90;;;;;;5082106;28;20036;-79
2022/01/06 06:00:18;;;;;;;6.20;2.75;;;3.40;99.90;;;;;;5081015;28;20028;-79
2022/01/06 06:02:44;;;;;;;5.50;2.50;;;3.40;99.90;;;;;;5095855;28;20207;-80
2022/01/06 06:05:10;;;;;;;6.38;2.30;;;3.50;99.90;;;;;;5084741;28;20087;-79
2022/01/06 06:07:35;;;;;;;6.85;2.40;;;3.50;99.90;;;;;;5067423;28;20069;-79
2022/01/06 06:10:01;;;;;;;8.77;2.65;;;3.50;99.90;;;;;;5094563;28;20024;-79
2022/01/06 06:12:27;;;;;;;5.47;2.30;;;3.50;99.90;;;;;;5082259;28;20044;-81
2022/01/06 06:14:53;;;;;;;6.60;2.60;;;3.50;99.90;;;;;;5100822;28;20134;-80
2022/01/06 06:17:20;;;;;;;7.57;2.55;;;3.50;99.90;;;;;;5083731;28;20386;-82
2022/01/06 06:19:46;;;;;;;8.23;2.53;;;3.50;99.90;;;;;;5101713;28;20095;-80
2022/01/06 06:22:11;;;;;;;7.43;2.42;;;3.50;99.90;;;;;;5067593;28;20310;-79
2022/01/06 06:24:38;;;;;;;6.95;2.50;;;3.60;99.90;;;;;;5084212;28;20030;-79
2022/01/06 06:27:04;;;;;;;6.07;2.60;;;3.60;99.90;;;;;;5083545;28;20099;-79
2022/01/06 06:29:30;;;;;;;7.38;2.20;;;3.50;99.90;;;;;;5102297;28;20073;-79
2022/01/06 06:31:55;;;;;;;7.22;2.53;;;3.50;99.90;;;;;;5083266;28;20318;-80
2022/01/06 06:34:21;;;;;;;9.25;2.25;;;3.60;99.90;;;;;;5074435;28;20032;-79
2022/01/06 06:36:47;;;;;;;8.48;2.22;;;3.60;99.90;;;;;;5079400;28;20031;-79
2022/01/06 06:39:13;;;;;;;8.18;2.45;;;3.60;99.90;;;;;;5083950;28;20024;-79
2022/01/06 06:41:39;;;;;;;8.05;2.47;;;3.70;99.90;;;;;;5083717;28;20035;-79
2022/01/06 06:44:05;;;;;;;6.55;2.05;;;3.60;99.90;;;;;;5101214;28;20306;-78
2022/01/06 06:46:31;;;;;;;7.82;2.50;;;3.70;99.90;;;;;;5083591;28;20073;-79
2022/01/06 06:48:56;;;;;;;6.45;2.40;;;3.70;99.90;;;;;;5101932;28;20021;-81
2022/01/06 06:51:22;;;;;;;8.30;2.70;;;3.70;99.90;;;;;;5102329;28;20032;-81
2022/01/06 06:53:48;;;;;;;5.85;2.50;;;3.80;99.90;;;;;;5067657;28;20085;-79
2022/01/06 06:56:14;;;;;;;11.10;3.33;;;3.70;99.90;;;;;;5103901;28;20091;-79
2022/01/06 06:58:40;;;;;;;7.28;2.90;;;3.70;99.90;;;;;;5106255;28;20218;-80
2022/01/06 07:01:05;;;;;;;7.75;2.53;;;3.70;99.90;;;;;;5104630;28;20071;-79
2022/01/06 07:03:31;;;;;;;8.82;2.58;;;3.60;99.90;;;;;;5105785;28;20024;-79
2022/01/06 07:05:57;;;;;;;6.43;2.70;;;3.60;99.90;;;;;;5104228;28;20237;-81
2022/01/06 07:08:22;;;;;;;10.93;2.75;;;3.60;99.90;;;;;;5105328;28;20222;-80
2022/01/06 07:10:48;;;;;;;8.73;2.50;;;3.60;99.90;;;;;;5070585;28;20032;-80
2022/01/06 07:13:16;;;;;;;10.05;2.97;;;3.60;99.90;;;;;;5105752;28;20065;-80
2022/01/06 07:15:43;;;;;;;8.38;2.65;;;3.60;99.90;;;;;;5085106;28;20040;-80
2022/01/06 07:18:10;;;;;;;7.40;2.75;;;3.70;99.90;;;;;;5086854;28;20032;-80
2022/01/06 07:20:36;;;;;;;7.72;2.53;;;3.70;99.90;;;;;;5105733;28;20051;-80
2022/01/06 07:23:02;;;;;;;8.82;2.70;;;3.70;99.90;;;;;;5087358;28;20024;-80
2022/01/06 07:25:28;;;;;;;7.18;3.10;;;3.70;99.90;;;;;;5105430;28;20027;-80
2022/01/06 07:27:53;;;;;;;10.15;2.70;;;3.80;99.90;;;;;;5105306;28;20020;-81
2022/01/06 07:30:20;;;;;;;5.68;2.53;;;3.70;99.90;;;;;;5105205;28;20032;-80
2022/01/06 07:32:48;;;;;;;9.85;2.78;;;3.70;99.90;;;;;;5090644;28;20050;-80
2022/01/06 07:35:15;;;;;;;7.35;3.20;;;3.60;99.90;;;;;;5069190;28;20245;-78
2022/01/06 07:37:41;;;;;;;10.55;2.80;;;3.70;99.90;;;;;;5070505;28;20350;-82
2022/01/06 07:40:08;;;;;;;10.43;2.72;;;3.70;99.90;;;;;;5067700;28;20028;-79
2022/01/06 07:42:35;;;;;;;9.43;2.70;;;3.70;99.90;;;;;;5067776;28;20056;-80
2022/01/06 07:45:02;;;;;;;7.75;2.90;;;3.70;99.90;;;;;;5067195;28;20039;-79
2022/01/06 07:47:36;;;;;;;11.38;2.63;;;3.70;99.90;;;;;;5066259;28;20040;-81
2022/01/06 07:50:05;;;;;;;6.75;2.67;;;3.70;99.90;;;;;;5085145;28;20088;-80
2022/01/06 07:52:30;;;;;;;9.40;2.92;;;3.60;99.90;;;;;;5067384;28;20044;-80
2022/01/06 07:54:56;;;;;;;12.32;2.80;;;3.60;99.90;;;;;;5067221;28;20100;-81
2022/01/06 07:57:22;;;;;;;7.35;3.05;;;3.50;99.90;;;;;;5075806;28;20024;-81
2022/01/06 07:59:47;;;;;;;10.07;3.28;;;3.50;99.90;;;;;;5087636;28;20274;-80
2022/01/06 08:02:14;;;;;;;10.80;2.83;;;3.30;99.90;;;;;;5072594;28;20040;-81
2022/01/06 08:04:40;;;;;;;8.60;2.72;;;3.40;99.90;;;;;;5087472;28;20329;-80
2022/01/06 08:07:06;;;;;;;11.32;2.85;;;3.40;99.90;;;;;;5078633;28;20028;-81
2022/01/06 08:09:32;;;;;;;13.40;3.63;;;3.40;99.90;;;;;;5070718;28;20044;-79
2022/01/06 08:11:58;;;;;;;7.43;2.63;;;3.30;99.90;;;;;;5086388;28;20199;-80
2022/01/06 08:14:24;;;;;;;8.80;2.70;;;3.30;99.90;;;;;;5087104;28;20024;-79
2022/01/06 08:16:50;;;;;;;10.10;3.10;;;3.30;99.90;;;;;;5104258;28;20082;-79
2022/01/06 08:19:16;;;;;;;10.13;3.00;;;3.30;99.90;;;;;;5104740;28;20072;-78
2022/01/06 08:21:42;;;;;;;9.32;2.95;;;3.50;99.90;;;;;;5070293;28;20088;-80
2022/01/06 08:24:07;;;;;;;7.00;2.65;;;3.50;99.90;;;;;;5103400;28;20207;-81
2022/01/06 08:26:33;;;;;;;9.73;2.85;;;3.60;99.90;;;;;;5086546;28;20028;-79
2022/01/06 08:28:59;;;;;;;13.63;3.53;;;3.60;99.90;;;;;;5086467;28;20327;-79
2022/01/06 08:31:25;;;;;;;9.48;3.22;;;3.70;99.90;;;;;;5103902;28;20042;-81
2022/01/06 08:33:50;;;;;;;9.63;2.88;;;3.70;99.90;;;;;;5086502;28;20382;-81
2022/01/06 08:36:16;;;;;;;10.23;3.20;;;3.70;99.90;;;;;;5069865;28;20024;-82
2022/01/06 08:38:42;;;;;;;11.48;3.13;;;3.70;99.90;;;;;;5103850;28;20020;-82
2022/01/06 08:41:08;;;;;;;8.10;2.92;;;3.70;99.90;;;;;;5104162;28;20047;-80
2022/01/06 08:43:35;;;;;;;11.43;3.05;;;3.80;99.90;;;;;;5104147;28;20028;-81
2022/01/06 08:46:01;;;;;;;13.27;3.55;;;3.80;99.90;;;;;;5069037;28;20057;-81
2022/01/06 08:48:29;;;;;;;8.23;3.67;;;3.80;99.90;;;;;;5086344;28;20028;-80
2022/01/06 08:50:55;;;;;;;9.38;2.95;;;3.80;99.90;;;;;;5085708;28;20028;-82
2022/01/06 08:53:22;;;;;;;9.48;2.78;;;3.90;99.90;;;;;;5086245;28;20059;-80
2022/01/06 08:55:48;;;;;;;11.20;3.20;;;3.90;99.90;;;;;;5085825;28;20027;-81
2022/01/06 08:58:14;;;;;;;13.95;3.33;;;3.90;99.90;;;;;;5103955;28;20074;-80
2022/01/06 09:00:41;;;;;;;6.55;2.83;;;4.00;99.90;;;;;;5079806;28;20104;-80
2022/01/06 09:03:07;;;;;;;11.68;3.88;;;4.00;99.90;;;;;;5065511;28;20027;-80
2022/01/06 09:05:33;;;;;;;8.40;3.00;;;4.10;99.90;;;;;;5083318;28;20044;-79
2022/01/06 09:07:59;;;;;;;7.03;2.83;;;4.00;99.90;;;;;;5065068;28;20128;-81
2022/01/06 09:10:29;;;;;;;7.60;2.80;;;4.10;99.90;;;;;;5066548;28;20025;-81
2022/01/06 09:12:56;;;;;;;10.00;3.08;;;4.20;99.90;;;;;;5050031;28;20024;-82
2022/01/06 09:15:21;;;;;;;10.05;3.20;;;4.20;99.90;;;;;;5052181;28;20032;-81
2022/01/06 09:17:47;;;;;;;9.43;3.30;;;4.10;99.90;;;;;;5086155;28;20055;-80
2022/01/06 09:20:13;;;;;;;10.48;4.13;;;4.10;99.90;;;;;;5084999;28;20477;-82
2022/01/06 09:22:41;;;;;;;15.88;3.67;;;4.10;99.90;;;;;;5085407;28;20038;-80
2022/01/06 09:25:08;;;;;;;14.73;3.92;;;4.10;99.90;;;;;;5086669;28;20206;-81
2022/01/06 09:27:34;;;;;;;12.68;4.00;;;4.10;99.90;;;;;;5086377;28;20032;-82
2022/01/06 09:30:00;;;;;;;7.32;3.05;;;4.20;99.90;;;;;;5070220;28;20100;-81
2022/01/06 09:32:29;;;;;;;12.35;3.22;;;4.20;99.90;;;;;;5102706;28;20330;-80
2022/01/06 09:34:55;;;;;;;7.72;2.88;;;4.20;99.90;;;;;;5103907;28;20027;-82
2022/01/06 09:37:24;;;;;;;10.02;3.17;;;4.20;99.90;;;;;;5069672;28;20074;-81
2022/01/06 09:39:50;;;;;;;13.57;3.20;;;4.30;99.90;;;;;;5069428;28;20101;-80
2022/01/06 09:42:18;;;;;;;11.18;3.40;;;4.40;99.90;;;;;;5097243;28;20027;-83
2022/01/06 09:44:47;;;;;;;6.68;2.90;;;4.40;99.90;;;;;;5085478;28;20024;-82
2022/01/06 09:47:13;;;;;;;10.93;2.85;;;4.40;99.90;;;;;;5084035;28;20059;-80
2022/01/06 09:49:42;;;;;;;8.85;2.88;;;4.40;99.90;;;;;;5084997;28;20314;-81
2022/01/06 09:52:09;;;;;;;10.40;3.20;;;4.50;99.90;;;;;;5084878;28;20047;-80
2022/01/06 09:54:36;;;;;;;9.77;3.00;;;4.50;99.90;;;;;;5085816;28;20053;-80
2022/01/06 09:57:02;;;;;;;10.60;3.30;;;4.60;99.90;;;;;;5084860;28;20051;-80
2022/01/06 09:59:28;;;;;;;9.25;2.70;;;4.70;99.90;;;;;;5085021;28;20027;-78
2022/01/06 10:01:54;;;;;;;8.98;2.88;;;4.80;99.90;;;;;;5061790;28;20262;-82
2022/01/06 10:04:27;;;;;;;8.13;2.75;;;4.90;99.90;;;;;;5102378;28;20092;-80
2022/01/06 10:07:05;;;;;;;8.82;2.40;;;4.90;99.90;;;;;;5084834;28;20106;-79
2022/01/06 10:09:34;;;;;;;6.47;2.70;;;4.90;99.90;;;;;;5102811;28;20303;-80
2022/01/06 10:12:00;;;;;;;8.20;2.85;;;5.00;99.90;;;;;;5083917;28;20325;-79
2022/01/06 10:14:40;;;;;;;9.70;2.63;;;5.10;99.90;;;;;;5102723;28;20089;-83
2022/01/06 10:17:06;;;;;;;11.18;3.25;;;5.10;99.90;;;;;;5083418;28;20062;-79
2022/01/06 10:19:35;;;;;;;8.68;2.42;;;5.10;99.90;;;;;;5102849;28;20016;-79
2022/01/06 10:22:00;;;;;;;9.30;2.63;;;5.00;99.90;;;;;;5084187;28;20028;-80
2022/01/06 10:24:28;;;;;;;7.88;3.00;;;4.90;99.90;;;;;;5097262;28;20354;-79
2022/01/06 10:26:57;;;;;;;5.97;2.33;;;4.90;99.90;;;;;;5105978;28;20095;-79
2022/01/06 10:29:33;;;;;;;8.82;2.38;;;4.80;99.90;;;;;;5107245;28;20058;-80
2022/01/06 10:32:04;;;;;;;7.47;3.35;;;4.80;99.90;;;;;;5087657;28;20056;-80
2022/01/06 10:34:39;;;;;;;10.40;2.80;;;4.80;99.90;;;;;;5106804;28;20303;-79
2022/01/06 10:37:17;;;;;;;8.40;2.83;;;4.80;99.90;;;;;;5088349;28;20024;-79
2022/01/06 10:39:45;;;;;;;7.45;2.58;;;5.00;99.90;;;;;;5106756;28;20031;-79
2022/01/06 10:42:11;;;;;;;8.65;2.63;;;4.90;99.90;;;;;;5106050;28;20035;-78
2022/01/06 10:44:47;;;;;;;8.18;2.53;;;5.00;99.90;;;;;;5078673;28;20074;-80
2022/01/06 10:47:13;;;;;;;7.53;2.40;;;5.00;99.90;;;;;;5067413;28;20044;-78
2022/01/06 10:49:39;;;;;;;9.07;2.85;;;5.10;99.90;;;;;;5086190;28;20087;-78
2022/01/06 10:52:05;;;;;;;9.70;2.75;;;5.20;99.90;;;;;;5085583;28;20052;-79
2022/01/06 10:54:35;;;;;;;10.82;3.17;;;5.30;99.90;;;;;;5085019;28;20037;-79
2022/01/06 10:57:02;;;;;;;9.27;2.95;;;5.50;99.90;;;;;;5085226;28;20032;-81
2022/01/06 10:59:32;;;;;;;7.15;2.63;;;5.50;99.90;;;;;;5085775;28;20246;-79
2022/01/06 11:01:58;;;;;;;8.48;2.40;;;5.70;99.90;;;;;;5085102;28;20041;-77
2022/01/06 11:04:24;;;;;;;8.10;2.60;;;5.90;99.90;;;;;;5069472;28;20062;-79
2022/01/06 11:06:50;;;;;;;9.10;2.22;;;6.20;99.90;;;;;;5088048;28;20024;-80
2022/01/06 11:09:17;;;;;;;9.98;2.88;;;6.30;99.90;;;;;;5107520;28;20040;-78
2022/01/06 11:14:45;;;;;;;9.20;2.30;;;6.50;99.90;;;;;;5043881;28;20029;-78
2022/01/06 11:17:10;;;;;;;6.60;1.85;;;6.70;99.90;;;;;;5043255;28;20064;-77
2022/01/06 11:19:36;;;;;;;9.88;1.88;;;6.90;99.90;;;;;;5043839;28;20037;-78
2022/01/06 11:22:04;;;;;;;10.48;2.13;;;6.90;99.90;;;;;;5042893;28;20379;-80
2022/01/06 11:24:30;;;;;;;9.35;3.05;;;6.90;99.90;;;;;;5027220;28;20025;-80
2022/01/06 11:27:06;;;;;;;9.65;1.73;;;6.80;99.90;;;;;;5042940;28;20268;-78
2022/01/06 11:29:38;;;;;;;9.35;2.03;;;6.70;99.90;;;;;;5063176;28;20076;-78
2022/01/06 11:32:16;;;;;;;5.75;1.65;;;7.00;99.90;;;;;;5062382;28;20045;-78
2022/01/06 11:34:41;;;;;;;9.48;1.70;;;7.60;99.90;;;;;;5063701;28;20047;-78
2022/01/06 11:37:15;;;;;;;6.63;2.30;;;7.70;99.90;;;;;;5062321;28;20061;-77
2022/01/06 11:39:41;;;;;;;7.95;1.73;;;7.40;99.90;;;;;;5063528;28;20335;-79
2022/01/06 11:42:16;;;;;;;11.05;1.88;;;7.50;99.90;;;;;;5062732;28;20033;-79
2022/01/06 11:44:50;;;;;;;5.50;1.65;;;7.50;99.90;;;;;;5064986;28;20266;-77
2022/01/06 11:47:16;;;;;;;7.63;2.35;;;7.70;99.90;;;;;;5027818;28;20061;-80
2022/01/06 11:49:43;;;;;;;6.63;1.92;;;7.50;99.90;;;;;;5082458;28;20040;-77
2022/01/06 11:52:13;;;;;;;7.05;1.67;;;7.60;99.90;;;;;;5070190;28;20212;-79
2022/01/06 11:54:46;;;;;;;6.63;1.48;;;8.10;99.90;;;;;;5087439;28;20073;-78
2022/01/06 11:57:11;;;;;;;5.95;1.70;;;8.70;99.90;;;;;;5087169;28;20081;-80
2022/01/06 11:59:38;;;;;;;7.30;1.67;;;8.70;99.90;;;;;;5105225;28;20020;-79
2022/01/06 12:02:04;;;;;;;6.68;1.92;;;8.40;99.90;;;;;;5104193;28;20051;-80
2022/01/06 12:04:30;;;;;;;8.70;2.05;;;7.60;99.90;;;;;;5088194;28;20142;-78
2022/01/06 12:07:08;;;;;;;9.63;2.03;;;7.10;99.90;;;;;;5065042;28;20020;-80
2022/01/06 12:09:34;;;;;;;6.32;1.70;;;6.60;99.90;;;;;;5105287;28;20080;-79
2022/01/06 12:12:04;;;;;;;7.03;1.83;;;6.70;99.90;;;;;;5070206;28;20036;-79
2022/01/06 12:14:30;;;;;;;11.02;1.98;;;6.40;99.90;;;;;;5105268;28;20042;-78
2022/01/06 12:17:23;;;;;;;11.77;2.08;;;6.10;99.90;;;;;;5104306;28;20036;-79
2022/01/06 12:19:53;;;;;;;8.70;2.05;;;5.90;99.90;;;;;;5101125;28;20071;-78
2022/01/06 12:22:25;;;;;;;11.05;2.30;;;5.80;99.90;;;;;;5071999;28;20039;-80
2022/01/06 12:25:05;;;;;;;8.80;1.77;;;5.80;99.90;;;;;;5070311;28;20103;-78
2022/01/06 12:27:32;;;;;;;7.72;2.00;;;5.80;99.90;;;;;;5098992;28;20036;-78
2022/01/06 12:29:58;;;;;;;6.60;2.00;;;5.90;99.90;;;;;;5104855;28;20061;-78
2022/01/06 12:32:23;;;;;;;8.57;2.03;;;6.10;99.90;;;;;;5103611;28;20269;-78
2022/01/06 12:34:53;;;;;;;10.20;1.98;;;7.10;99.90;;;;;;5070036;28;20055;-79
2022/01/06 12:37:30;;;;;;;8.27;1.98;;;7.70;99.90;;;;;;5103876;28;20303;-80
2022/01/06 12:39:57;;;;;;;11.68;2.00;;;7.60;99.90;;;;;;5086622;28;20036;-79
2022/01/06 12:42:23;;;;;;;6.82;1.88;;;7.50;99.90;;;;;;5102892;28;20370;-78
2022/01/06 12:44:50;;;;;;;9.75;2.42;;;7.40;99.90;;;;;;5104616;28;20032;-78
2022/01/06 12:47:16;;;;;;;6.72;1.80;;;7.30;99.90;;;;;;5103358;28;20040;-78
2022/01/06 12:49:42;;;;;;;11.68;2.72;;;7.00;99.90;;;;;;5098142;28;20374;-79
2022/01/06 12:52:08;;;;;;;9.13;2.05;;;7.10;99.90;;;;;;5069221;28;20337;-79
2022/01/06 12:54:37;;;;;;;11.05;2.00;;;7.80;99.90;;;;;;5086486;28;20031;-79
2022/01/06 12:57:03;;;;;;;8.15;2.33;;;8.90;99.90;;;;;;5106135;28;20024;-79
2022/01/06 12:59:34;;;;;;;7.88;2.00;;;9.70;99.90;;;;;;5104050;28;20362;-80
2022/01/06 13:02:03;;;;;;;9.30;2.72;;;10.10;99.90;;;;;;5103716;28;20044;-79
2022/01/06 13:04:34;;;;;;;6.43;2.20;;;10.70;99.90;;;;;;5103621;28;20195;-79